Time;durP1;ratioP1;P1;durP2;ratioP2;P2;SDS_P1;SDS_P2;PMS_P1;PMS_P2;Temp;Humidity;BMP_temperature;BMP_pressure;BME280_temperature;BME280_humidity;BME280_pressure;Samples;Min_cycle;Max_cycle;Signal;HPM_P1;HPM_P2
2023/02/08 00:01:10;;;;;;;17.53;11.07;;;;;;;-2.83;63.15;101076.97;5133548;27;41110;-81
2023/02/08 00:03:40;;;;;;;19.83;12.63;;;;;;;-2.85;62.98;101080.38;5133548;27;42299;-81
2023/02/08 00:06:08;;;;;;;18.43;12.07;;;;;;;-2.89;62.72;101074.22;5116071;27;43781;-81
2023/02/08 00:08:39;;;;;;;20.17;11.73;;;;;;;-3.34;63.47;101007.31;5133533;27;43510;-81
2023/02/08 00:11:09;;;;;;;19.23;10.33;;;;;;;-2.95;63.58;101074.91;5132544;27;39834;-81
2023/02/08 00:13:38;;;;;;;22.97;11.67;;;;;;;-2.96;63.40;101080.06;5116379;27;42390;-81
2023/02/08 00:16:07;;;;;;;19.40;11.57;;;;;;;-2.99;64.10;101082.59;5116520;27;43222;-81
2023/02/08 00:18:35;;;;;;;24.80;15.03;;;;;;;-3.04;63.69;101077.28;5116605;27;41317;-81
2023/02/08 00:21:09;;;;;;;19.30;12.27;;;;;;;-3.02;63.77;101082.50;5116293;27;38957;-82
2023/02/08 00:23:37;;;;;;;20.73;12.00;;;;;;;-3.03;64.32;101075.56;5115952;27;41991;-81
2023/02/08 00:26:06;;;;;;;20.93;12.27;;;;;;;-3.13;64.99;101061.47;5133304;27;44114;-81
2023/02/08 00:28:34;;;;;;;20.77;13.03;;;;;;;-3.07;65.30;101074.59;5133481;27;41868;-82
2023/02/08 00:31:01;;;;;;;21.23;12.07;;;;;;;-3.07;65.25;101074.59;5116323;27;39179;-81
2023/02/08 00:33:29;;;;;;;20.50;11.27;;;;;;;-3.61;64.89;100993.63;5116206;27;40458;-80
2023/02/08 00:35:59;;;;;;;21.40;12.77;;;;;;;-3.09;64.78;101086.63;5134470;27;42728;-81
2023/02/08 00:38:28;;;;;;;20.83;13.10;;;;;;;-3.18;64.63;101072.53;5134987;27;41838;-81
2023/02/08 00:40:56;;;;;;;19.63;11.20;;;;;;;-3.30;64.59;101054.94;5116474;27;40341;-81
2023/02/08 00:43:25;;;;;;;17.17;11.07;;;;;;;-3.16;64.52;101083.81;5133763;27;40315;-81
2023/02/08 00:45:57;;;;;;;18.47;11.57;;;;;;;-3.44;64.24;101041.56;5133645;27;41295;-82
2023/02/08 00:48:25;;;;;;;16.10;11.00;;;;;;;-3.21;64.38;101085.44;5130498;27;42435;-80
2023/02/08 00:51:01;;;;;;;15.90;10.43;;;;;;;-3.30;64.74;101079.13;5116620;27;40250;-81
2023/02/08 00:53:31;;;;;;;16.73;10.93;;;;;;;-3.35;64.54;101075.53;5116899;27;41700;-82
2023/02/08 00:55:59;;;;;;;21.07;11.77;;;;;;;-3.30;64.69;101092.09;5133057;27;43532;-81
2023/02/08 00:58:26;;;;;;;21.47;11.80;;;;;;;-3.32;64.56;101093.75;5116320;27;41304;-82
2023/02/08 01:00:54;;;;;;;16.93;12.07;;;;;;;-3.32;64.60;101092.88;5116491;27;39315;-82
2023/02/08 01:03:23;;;;;;;20.70;11.83;;;;;;;-3.38;64.50;101091.00;5116226;27;40760;-82
2023/02/08 01:05:52;;;;;;;16.13;10.63;;;;;;;-3.36;64.61;101096.22;5115841;27;42780;-81
2023/02/08 01:08:21;;;;;;;16.07;9.80;;;;;;;-3.42;64.65;101086.53;5133300;27;42232;-82
2023/02/08 01:10:51;;;;;;;17.10;10.63;;;;;;;-3.42;64.83;101089.13;5132947;27;40118;-81
2023/02/08 01:13:19;;;;;;;14.20;9.87;;;;;;;-3.44;65.72;101098.56;5133049;27;43235;-82
2023/02/08 01:15:47;;;;;;;16.63;10.57;;;;;;;-3.48;65.30;101085.50;5115872;27;42943;-81
2023/02/08 01:18:15;;;;;;;15.53;10.43;;;;;;;-3.48;65.18;101090.69;5133156;27;42766;-81
2023/02/08 01:20:43;;;;;;;13.33;9.43;;;;;;;-3.50;65.10;101092.34;5132946;27;41023;-81
2023/02/08 01:23:11;;;;;;;16.00;9.67;;;;;;;-3.53;65.17;101093.13;5115896;27;40303;-82
2023/02/08 01:25:40;;;;;;;17.57;11.17;;;;;;;-3.62;64.93;101087.69;5114801;27;43442;-81
2023/02/08 01:28:10;;;;;;;19.23;11.20;;;;;;;-3.71;64.96;101082.22;5133234;27;42176;-81
2023/02/08 01:34:51;;;;;;;15.87;10.63;;;;;;;-3.71;66.67;101077.03;5134452;27;43369;-81
2023/02/08 01:37:19;;;;;;;19.23;11.73;;;;;;;-3.74;66.26;101077.81;5132481;27;42685;-81
2023/02/08 01:39:48;;;;;;;20.33;12.13;;;;;;;-3.75;66.06;101081.25;5132650;27;41998;-82
2023/02/08 01:42:17;;;;;;;21.60;12.63;;;;;;;-3.87;65.60;101059.28;5115587;27;41299;-81
2023/02/08 01:45:30;;;;;;;18.87;11.17;;;;;;;-3.78;66.05;101075.09;5115665;27;40738;-81
2023/02/08 01:48:07;;;;;;;19.20;10.97;;;;;;;-3.80;65.99;101076.75;5053230;28;43722;-81
2023/02/08 01:50:46;;;;;;;22.00;12.80;;;;;;;-3.94;66.04;101057.31;5110983;27;42769;-81
2023/02/08 01:53:14;;;;;;;17.67;10.60;;;;;;;-3.91;66.38;101060.00;5129659;27;40837;-81
2023/02/08 01:55:47;;;;;;;15.37;9.80;;;;;;;-3.96;66.72;101046.06;5132546;27;42775;-82
2023/02/08 01:58:17;;;;;;;15.93;10.07;;;;;;;-3.95;66.33;101051.25;5115380;27;43335;-81
2023/02/08 02:00:46;;;;;;;15.27;9.93;;;;;;;-4.00;66.33;101045.97;5115059;27;41396;-81
2023/02/08 02:03:16;;;;;;;13.13;9.13;;;;;;;-3.88;66.90;101060.09;5132707;27;40697;-81
2023/02/08 02:05:48;;;;;;;14.23;9.13;;;;;;;-4.07;66.57;101038.81;5132236;27;41215;-81
2023/02/08 02:08:16;;;;;;;15.80;9.07;;;;;;;-3.90;67.02;101073.00;5133098;27;42997;-81
2023/02/08 02:10:44;;;;;;;16.27;9.23;;;;;;;-3.89;67.36;101060.94;5136865;27;43264;-81
2023/02/08 02:13:15;;;;;;;14.97;8.67;;;;;;;-3.97;67.14;101046.88;5136259;27;39692;-82
2023/02/08 02:15:45;;;;;;;12.93;8.67;;;;;;;-3.89;66.67;101067.00;5133144;27;41703;-81
2023/02/08 02:18:22;;;;;;;12.57;8.00;;;;;;;-4.01;66.86;101045.91;5135823;27;43573;-81
2023/02/08 02:21:19;;;;;;;12.53;7.87;;;;;;;-4.03;66.72;101050.16;5133127;27;42189;-81
2023/02/08 02:24:36;;;;;;;13.07;7.37;;;;;;;-3.95;66.56;101060.72;5118019;27;41290;-82
2023/02/08 02:27:26;;;;;;;13.30;7.43;;;;;;;-4.00;66.71;101068.38;5104355;27;40895;-81
2023/02/08 02:30:32;;;;;;;10.50;7.50;;;;;;;-4.03;66.39;101071.75;5132631;27;42286;-81
2023/02/08 02:33:44;;;;;;;9.87;6.53;;;;;;;-4.08;66.61;101065.53;5044732;27;42627;-81
2023/02/08 02:36:19;;;;;;;12.53;6.97;;;;;;;-4.10;66.25;101072.38;5110236;27;39979;-81
2023/02/08 02:39:05;;;;;;;9.37;5.93;;;;;;;-4.23;66.45;101049.53;5132492;27;42704;-81
2023/02/08 02:44:39;;;;;;;11.37;6.97;;;;;;;-4.19;66.47;101061.72;5136080;27;43071;-81
2023/02/08 02:47:14;;;;;;;10.47;6.80;;;;;;;-4.19;67.43;101066.00;5134927;27;39922;-81
2023/02/08 02:49:50;;;;;;;11.57;8.07;;;;;;;-4.28;67.55;101051.09;5135467;27;40927;-81
2023/02/08 02:52:26;;;;;;;13.47;8.93;;;;;;;-4.19;67.50;101066.91;5118034;27;43199;-81
2023/02/08 02:54:59;;;;;;;19.37;11.57;;;;;;;-4.19;67.26;101066.91;5118105;27;41355;-81
2023/02/08 02:57:32;;;;;;;12.67;8.03;;;;;;;-4.32;67.50;101051.81;5117864;27;38896;-82
2023/02/08 03:00:00;;;;;;;13.70;8.83;;;;;;;-4.23;67.21;101066.75;5118123;27;42971;-81
2023/02/08 03:02:28;;;;;;;14.77;8.50;;;;;;;-4.31;67.21;101050.09;5135041;27;43767;-81
2023/02/08 03:04:57;;;;;;;13.97;8.70;;;;;;;-4.22;67.23;101068.53;5117843;27;43272;-81
2023/02/08 03:07:43;;;;;;;14.73;7.77;;;;;;;-4.35;67.20;101043.97;5134899;27;39185;-81
2023/02/08 03:10:29;;;;;;;12.37;8.40;;;;;;;-4.39;67.12;101042.09;5117955;27;41811;-81
2023/02/08 03:13:03;;;;;;;11.87;7.40;;;;;;;-4.28;67.15;101066.59;5117783;27;43061;-81
2023/02/08 03:15:44;;;;;;;10.03;7.50;;;;;;;-4.28;67.45;101068.31;5134829;27;42696;-82
2023/02/08 03:18:30;;;;;;;11.87;7.37;;;;;;;-4.39;67.34;101047.28;5135602;27;41747;-81
2023/02/08 03:21:07;;;;;;;12.87;8.57;;;;;;;-4.40;67.43;101038.63;5134848;27;40945;-81
2023/02/08 03:23:45;;;;;;;10.07;7.00;;;;;;;-4.28;67.42;101060.56;5131291;27;44046;-81
2023/02/08 03:26:23;;;;;;;11.30;7.53;;;;;;;-4.42;67.73;101040.28;5134487;27;41341;-81
2023/02/08 03:28:58;;;;;;;13.10;7.63;;;;;;;-4.36;68.02;101056.03;5132939;27;39917;-81
2023/02/08 03:31:32;;;;;;;11.63;7.57;;;;;;;-4.30;67.96;101067.38;5134425;27;42454;-81
2023/02/08 03:34:06;;;;;;;13.47;8.20;;;;;;;-4.33;67.69;101077.66;5134663;27;43263;-81
2023/02/08 03:36:41;;;;;;;14.03;8.00;;;;;;;-4.34;67.54;101076.78;5134677;27;42330;-82
2023/02/08 03:39:13;;;;;;;11.53;6.77;;;;;;;-4.35;67.95;101081.06;5117437;27;39113;-82
2023/02/08 03:41:45;;;;;;;13.27;7.30;;;;;;;-4.39;67.68;101080.91;5134426;27;41189;-81
2023/02/08 03:44:19;;;;;;;10.57;6.10;;;;;;;-4.40;67.54;101082.59;5132575;27;43194;-81
2023/02/08 03:46:50;;;;;;;9.33;6.40;;;;;;;-4.41;67.67;101086.00;5117381;27;42324;-81
2023/02/08 03:49:22;;;;;;;8.77;6.23;;;;;;;-4.51;67.65;101068.44;5134819;27;39852;-82
2023/02/08 03:51:51;;;;;;;11.90;6.43;;;;;;;-4.44;68.17;101085.03;5133828;27;42672;-81
2023/02/08 03:54:25;;;;;;;14.07;8.50;;;;;;;-4.46;70.15;101074.66;5117014;27;44128;-81
2023/02/08 03:57:03;;;;;;;12.70;7.77;;;;;;;-4.46;72.07;101060.84;5117040;27;42328;-81
2023/02/08 03:59:35;;;;;;;10.97;7.67;;;;;;;-4.46;72.45;101063.44;5117055;27;40379;-81
2023/02/08 04:02:08;;;;;;;13.23;8.37;;;;;;;-4.82;71.02;101007.06;5134338;27;40862;-81
2023/02/08 04:04:41;;;;;;;14.33;8.43;;;;;;;-4.48;71.00;101057.31;5131227;27;43780;-81
2023/02/08 04:07:09;;;;;;;12.53;7.80;;;;;;;-4.82;70.85;101014.81;5116983;27;42490;-81
2023/02/08 04:09:39;;;;;;;10.77;7.67;;;;;;;-4.53;70.44;101062.34;5134176;27;40927;-81
2023/02/08 04:12:07;;;;;;;11.27;6.60;;;;;;;-4.60;70.31;101060.38;5133950;27;40830;-80
2023/02/08 04:14:35;;;;;;;8.53;5.93;;;;;;;-4.55;70.25;101071.75;5133839;27;43513;-80
2023/02/08 04:17:04;;;;;;;9.97;6.60;;;;;;;-4.58;70.11;101075.97;5133903;27;43053;-80
2023/02/08 04:19:32;;;;;;;10.60;7.37;;;;;;;-4.66;70.03;101056.69;5116690;27;39067;-80
2023/02/08 04:21:59;;;;;;;13.97;9.20;;;;;;;-4.60;70.04;101072.44;5116461;27;42514;-80
2023/02/08 04:24:27;;;;;;;12.60;7.63;;;;;;;-4.61;70.20;101070.69;5116262;27;44578;-80
2023/02/08 08:52:06;;;;;;;19.53;12.23;;;;;;;9.02;46.01;101207.91;5111944;28;20552;-81
2023/02/08 08:54:34;;;;;;;16.27;11.93;;;;;;;10.74;42.28;101233.28;5092478;28;38746;-80
2023/02/08 08:57:03;;;;;;;14.90;12.87;;;;;;;11.03;40.49;101233.38;5091813;28;40555;-80
2023/02/08 08:59:31;;;;;;;18.00;12.93;;;;;;;9.93;41.19;101228.97;5109050;28;43755;-80
2023/02/08 09:01:59;;;;;;;17.67;13.30;;;;;;;8.81;42.42;101211.78;5091760;28;42829;-80
2023/02/08 09:04:27;;;;;;;17.67;12.73;;;;;;;7.57;42.43;101218.03;5108716;28;40131;-79
2023/02/08 09:06:55;;;;;;;18.17;12.87;;;;;;;6.60;43.82;101190.13;5110217;28;43094;-81
2023/02/08 09:09:24;;;;;;;17.83;13.93;;;;;;;7.15;44.26;101202.75;5091805;28;41655;-81
2023/02/08 09:11:52;;;;;;;17.67;12.37;;;;;;;9.58;40.81;101208.56;5091697;28;42237;-79
2023/02/08 09:14:19;;;;;;;18.27;13.13;;;;;;;9.80;39.62;101240.72;5108809;28;38845;-80
2023/02/08 09:16:48;;;;;;;18.37;13.33;;;;;;;10.04;38.42;101234.88;5108422;28;43027;-79
2023/02/08 09:19:16;;;;;;;19.43;12.87;;;;;;;9.29;38.95;101238.22;5108232;28;41837;-80
2023/02/08 09:21:43;;;;;;;17.73;13.53;;;;;;;8.12;40.62;101222.59;5108286;28;43256;-80
2023/02/08 09:24:11;;;;;;;20.00;14.07;;;;;;;7.40;41.16;101220.03;5091550;28;40356;-79
2023/02/08 09:26:40;;;;;;;22.50;14.97;;;;;;;7.18;41.04;101223.78;5090716;28;40724;-80
2023/02/08 09:29:08;;;;;;;18.70;14.17;;;;;;;6.72;42.46;101202.31;5108362;28;43770;-80
2023/02/08 09:31:38;;;;;;;21.90;14.77;;;;;;;6.82;42.34;101210.09;5109224;28;43020;-80
2023/02/08 09:34:06;;;;;;;21.37;13.90;;;;;;;7.86;40.68;101220.31;5109354;28;39735;-82
2023/02/08 09:36:36;;;;;;;16.83;13.33;;;;;;;9.69;38.34;101235.66;5125036;27;41764;-80
2023/02/08 09:39:07;;;;;;;18.13;13.43;;;;;;;11.36;35.37;101260.78;5090698;28;42251;-81
2023/02/08 09:41:54;;;;;;;20.50;14.47;;;;;;;11.98;34.20;101262.59;5108698;28;42373;-81
2023/02/08 09:44:29;;;;;;;19.67;14.10;;;;;;;10.57;36.43;101246.06;5125275;27;38686;-80
2023/02/08 09:47:01;;;;;;;20.43;14.77;;;;;;;9.28;38.69;101225.91;5090956;28;41844;-80
2023/02/08 09:49:32;;;;;;;21.53;15.27;;;;;;;8.25;40.34;101210.94;5090602;28;41782;-80
2023/02/08 09:52:04;;;;;;;20.53;13.07;;;;;;;7.61;40.43;101207.47;5090672;28;42482;-81
2023/02/08 09:54:36;;;;;;;23.00;14.73;;;;;;;7.02;40.45;101156.34;5107403;28;39055;-79
2023/02/08 09:57:13;;;;;;;25.03;15.17;;;;;;;7.87;39.94;101221.19;5105631;28;43074;-81
2023/02/08 09:59:52;;;;;;;21.47;14.43;;;;;;;8.57;38.33;101220.13;5090437;28;45745;-80
2023/02/08 10:02:25;;;;;;;21.63;14.53;;;;;;;9.05;37.85;101231.63;5083318;28;41239;-80
2023/02/08 10:04:58;;;;;;;21.57;15.23;;;;;;;9.52;36.87;101225.41;5076967;28;38997;-79
2023/02/08 10:07:27;;;;;;;19.30;13.80;;;;;;;10.47;36.00;101247.19;5093820;28;40638;-80
2023/02/08 10:09:58;;;;;;;19.23;14.30;;;;;;;12.05;34.56;101242.88;5076510;28;41864;-79
2023/02/08 10:12:37;;;;;;;20.27;14.60;;;;;;;13.36;32.76;101257.16;5076930;28;41902;-79
2023/02/08 10:15:14;;;;;;;18.83;13.30;;;;;;;14.17;30.41;101271.88;5092852;28;40084;-79
2023/02/08 10:17:53;;;;;;;17.27;14.20;;;;;;;14.33;29.50;101269.50;5076857;28;41846;-79
2023/02/08 10:20:33;;;;;;;17.03;13.77;;;;;;;15.03;28.19;101277.28;5091796;28;42788;-79
2023/02/08 10:23:12;;;;;;;17.70;13.97;;;;;;;15.14;28.77;101274.16;5090202;28;42845;-81
2023/02/08 10:26:06;;;;;;;18.13;14.00;;;;;;;14.60;28.92;101255.06;5091910;28;40166;-80
2023/02/08 10:31:45;;;;;;;19.50;14.13;;;;;;;14.14;29.17;101257.78;5171790;27;21061;-79
2023/02/08 10:34:25;;;;;;;16.43;13.67;;;;;;;14.68;29.59;101255.63;5167697;27;40694;-79
2023/02/08 10:36:53;;;;;;;15.80;13.77;;;;;;;15.17;28.53;101242.00;5170522;27;43055;-79
2023/02/08 10:39:27;;;;;;;17.43;15.03;;;;;;;16.81;27.78;101256.56;5169727;27;42743;-80
2023/02/08 10:41:55;;;;;;;18.67;14.87;;;;;;;17.99;27.07;101253.09;5153240;27;42085;-80
2023/02/08 10:44:31;;;;;;;17.60;14.13;;;;;;;18.87;25.68;101248.94;5170112;27;40202;-80
2023/02/08 10:47:13;;;;;;;18.73;13.90;;;;;;;20.35;24.63;101254.09;5170372;27;41637;-80
2023/02/08 10:49:48;;;;;;;16.17;14.30;;;;;;;21.83;22.17;101252.94;5170046;27;43664;-80
2023/02/08 10:52:17;;;;;;;20.13;14.67;;;;;;;23.37;20.44;101246.00;5168245;27;43149;-80
2023/02/08 10:54:44;;;;;;;18.50;16.60;;;;;;;25.02;19.95;101228.84;5169481;27;40734;-81
2023/02/08 10:57:17;;;;;;;15.70;14.17;;;;;;;26.39;18.49;101236.63;5170286;27;42951;-81
2023/02/08 10:59:49;;;;;;;18.40;15.47;;;;;;;27.42;17.52;101239.66;5152214;27;44508;-81
2023/02/08 11:02:22;;;;;;;16.90;14.98;;;;;;;28.28;16.89;101223.19;5152509;27;41940;-81
2023/02/08 11:05:01;;;;;;;15.27;13.73;;;;;;;29.36;16.26;101212.97;5152159;27;40918;-81
2023/02/08 11:07:30;;;;;;;15.90;14.00;;;;;;;30.85;15.18;101216.03;5152596;27;43315;-81
2023/02/08 11:10:15;;;;;;;16.00;13.48;;;;;;;31.72;13.89;101222.69;5151891;27;43136;-81
2023/02/08 11:12:53;;;;;;;14.38;13.02;;;;;;;31.90;14.14;101200.56;5167937;27;42157;-81
2023/02/08 11:15:23;;;;;;;15.27;13.85;;;;;;;32.09;13.35;101173.53;5168458;27;39934;-81
2023/02/08 11:17:59;;;;;;;15.00;13.55;;;;;;;32.61;12.91;101215.97;5169489;27;42357;-81
2023/02/08 11:20:35;;;;;;;13.75;12.45;;;;;;;33.05;13.14;101170.34;5152213;27;41829;-82
2023/02/08 11:23:04;;;;;;;17.58;13.05;;;;;;;33.19;12.49;101190.63;5152409;27;42679;-81
2023/02/08 11:25:36;;;;;;;14.13;12.82;;;;;;;31.61;12.84;101181.94;5170498;27;40164;-82
2023/02/08 11:28:05;;;;;;;15.90;13.30;;;;;;;31.19;13.82;101152.06;5167490;27;42571;-82
2023/02/08 11:30:33;;;;;;;14.90;13.30;;;;;;;29.79;13.99;101134.72;5170108;27;42587;-82
2023/02/08 11:33:22;;;;;;;15.97;12.83;;;;;;;27.61;15.94;101145.34;5169372;27;41466;-81
2023/02/08 11:35:57;;;;;;;13.57;12.20;;;;;;;26.47;17.14;101135.34;5169291;27;40241;-82
2023/02/08 11:38:27;;;;;;;12.60;11.30;;;;;;;26.60;16.12;101144.06;5169521;27;42476;-81
2023/02/08 11:40:57;;;;;;;13.97;12.53;;;;;;;26.87;16.15;101126.16;5166184;27;44205;-82
2023/02/08 11:43:28;;;;;;;12.73;11.43;;;;;;;27.68;15.36;101116.53;5155383;27;44255;-81
2023/02/08 11:45:57;;;;;;;13.77;12.37;;;;;;;27.94;15.25;101128.41;5155260;27;40327;-82
2023/02/08 11:48:36;;;;;;;13.17;11.87;;;;;;;27.95;14.67;101119.22;5155644;27;41692;-81
2023/02/08 11:51:04;;;;;;;17.23;12.02;;;;;;;28.24;14.30;101124.50;5154913;27;43247;-82
2023/02/08 11:53:35;;;;;;;13.75;12.32;;;;;;;29.11;14.33;101115.56;5155213;27;42243;-82
2023/02/08 11:56:07;;;;;;;13.52;12.13;;;;;;;30.10;13.21;101122.22;5156285;27;40008;-82
2023/02/08 11:58:35;;;;;;;13.30;12.00;;;;;;;30.96;13.27;101108.09;5137960;27;41705;-81
2023/02/08 12:01:05;;;;;;;13.05;11.70;;;;;;;32.03;12.56;101113.94;5137622;27;41904;-81
2023/02/08 12:03:38;;;;;;;13.25;12.00;;;;;;;32.88;12.56;101119.38;5137875;27;43136;-81
2023/02/08 12:06:24;;;;;;;13.35;12.05;;;;;;;33.44;11.85;101103.34;5156392;27;40897;-81
2023/02/08 12:08:59;;;;;;;12.05;10.85;;;;;;;33.91;11.16;101115.81;5137592;27;40674;-82
2023/02/08 12:11:35;;;;;;;11.77;10.68;;;;;;;33.88;11.18;101115.16;5154908;27;43145;-82
2023/02/08 12:14:15;;;;;;;12.25;11.02;;;;;;;34.01;11.36;101100.72;5151914;27;42410;-83
2023/02/08 12:17:06;;;;;;;11.65;10.48;;;;;;;34.32;11.32;101092.22;5137858;27;40290;-82
2023/02/08 12:20:02;;;;;;;11.75;10.65;;;;;;;34.45;11.33;101081.34;5152284;27;41818;-81
2023/02/08 12:22:30;;;;;;;10.52;9.52;;;;;;;34.72;11.73;101078.81;5137513;27;44500;-82
2023/02/08 12:25:14;;;;;;;11.45;10.27;;;;;;;34.92;10.95;101077.94;5154340;27;42921;-82
2023/02/08 12:27:46;;;;;;;11.15;9.85;;;;;;;35.04;11.16;101075.47;5154955;27;39707;-82
2023/02/08 12:30:26;;;;;;;10.82;9.82;;;;;;;35.06;11.14;101067.88;5152376;27;42137;-82
2023/02/08 12:33:07;;;;;;;10.38;9.38;;;;;;;35.20;10.95;101057.78;5152694;27;43143;-82
2023/02/08 12:35:53;;;;;;;13.50;10.02;;;;;;;35.31;10.82;101062.75;5154289;27;42760;-82
2023/02/08 12:41:22;;;;;;;9.93;8.85;;;;;;;34.71;10.50;101046.81;5154395;27;41904;-82
2023/02/08 12:44:01;;;;;;;10.38;9.38;;;;;;;34.57;11.29;101035.72;5154401;27;42130;-80
2023/02/08 12:46:44;;;;;;;12.02;10.50;;;;;;;34.48;11.48;101020.41;5137686;27;42592;-82
2023/02/08 12:49:31;;;;;;;11.80;10.68;;;;;;;34.16;10.94;101026.41;5137024;27;40320;-83
2023/02/08 12:52:09;;;;;;;11.38;10.30;;;;;;;33.42;11.50;101017.50;5151653;27;41892;-82
2023/02/08 12:54:42;;;;;;;12.70;11.50;;;;;;;32.97;11.65;101019.41;5152760;27;43225;-82
2023/02/08 12:57:14;;;;;;;11.50;10.40;;;;;;;32.71;11.34;101018.97;5151457;27;42744;-83
2023/02/08 12:59:46;;;;;;;12.38;11.18;;;;;;;32.28;12.30;100998.59;5152301;27;40047;-82
2023/02/08 13:02:20;;;;;;;12.23;11.02;;;;;;;32.37;12.22;100992.88;5152589;27;41883;-82
2023/02/08 13:04:52;;;;;;;15.10;11.20;;;;;;;32.27;12.45;100948.38;5153444;27;43025;-82
2023/02/08 13:07:26;;;;;;;13.05;10.45;;;;;;;32.79;12.19;101006.03;5136915;27;41152;-82
2023/02/08 13:10:02;;;;;;;10.77;9.68;;;;;;;32.53;12.07;100993.75;5152277;27;40338;-82
2023/02/08 13:12:34;;;;;;;13.47;12.07;;;;;;;31.95;12.13;100989.78;5151431;27;41901;-82
2023/02/08 13:15:08;;;;;;;12.27;11.07;;;;;;;31.72;12.47;100987.88;5154009;27;44367;-82
2023/02/08 13:17:45;;;;;;;12.20;10.97;;;;;;;29.77;13.45;100987.38;5154766;27;42210;-81
2023/02/08 13:20:28;;;;;;;12.97;10.63;;;;;;;27.36;14.88;100981.69;5152588;27;39996;-82
2023/02/08 13:23:02;;;;;;;14.37;10.67;;;;;;;25.85;15.39;100964.59;5152390;27;42857;-81
2023/02/08 13:25:33;;;;;;;13.00;11.13;;;;;;;25.49;15.68;100974.25;5153713;27;41835;-81
2023/02/08 13:28:02;;;;;;;11.67;9.67;;;;;;;25.77;15.78;100959.88;5137077;27;42297;-81
2023/02/08 13:30:31;;;;;;;13.40;11.00;;;;;;;25.21;15.92;100952.34;5135672;27;40180;-81
2023/02/08 13:33:02;;;;;;;13.50;10.70;;;;;;;23.78;16.79;100943.22;5153934;27;41117;-81
2023/02/08 13:35:31;;;;;;;13.10;10.40;;;;;;;22.07;18.04;100920.22;5153937;27;43473;-81
2023/02/08 13:38:03;;;;;;;14.60;10.40;;;;;;;20.31;19.08;100923.31;5155004;27;42193;-81
2023/02/08 13:40:33;;;;;;;16.93;11.03;;;;;;;18.79;20.43;100891.41;5153134;27;41025;-80
2023/02/08 13:43:03;;;;;;;12.57;9.67;;;;;;;17.52;21.63;100884.91;5153989;27;41036;-81
2023/02/08 13:45:35;;;;;;;13.00;9.83;;;;;;;16.68;22.55;100896.91;5136249;27;43420;-82
2023/02/08 13:48:06;;;;;;;12.03;10.17;;;;;;;15.85;23.38;100880.84;5152346;27;42118;-81
2023/02/08 13:50:46;;;;;;;12.57;9.77;;;;;;;15.15;24.85;100864.84;5136208;27;41578;-80
2023/02/08 13:53:17;;;;;;;14.17;10.23;;;;;;;14.54;25.27;100868.66;5150941;27;42654;-81
2023/02/08 13:56:04;;;;;;;12.90;10.13;;;;;;;13.52;26.46;100849.22;5136185;27;43113;-82
2023/02/08 13:59:04;;;;;;;12.40;9.00;;;;;;;13.17;26.99;100841.88;5151729;27;42389;-81
2023/02/08 14:01:35;;;;;;;11.43;7.90;;;;;;;13.45;26.75;100829.13;5134346;27;39192;-80
2023/02/08 14:04:32;;;;;;;9.87;8.33;;;;;;;13.55;26.49;100827.81;5134277;27;40787;-80
2023/02/08 14:07:06;;;;;;;13.50;9.37;;;;;;;13.81;26.79;100824.00;5131588;27;41905;-79
2023/02/08 14:09:47;;;;;;;13.93;9.97;;;;;;;14.79;26.13;100824.81;5139224;27;42288;-80
2023/02/08 14:12:23;;;;;;;11.73;9.03;;;;;;;15.94;25.18;100824.28;5139105;27;39982;-81
2023/02/08 14:15:23;;;;;;;12.50;9.20;;;;;;;16.88;23.94;100812.81;5144955;27;42713;-81
2023/02/08 14:17:54;;;;;;;10.00;8.97;;;;;;;17.72;23.72;100826.63;5128140;27;43501;-81
2023/02/08 14:20:27;;;;;;;11.90;8.13;;;;;;;18.34;22.53;100825.41;5130683;27;42007;-81
2023/02/08 14:22:58;;;;;;;11.63;8.43;;;;;;;18.78;22.67;100830.66;5120474;27;40692;-81
2023/02/08 14:25:38;;;;;;;9.37;7.30;;;;;;;19.28;22.33;100831.81;5129491;27;41726;-81
2023/02/08 14:28:08;;;;;;;9.20;7.40;;;;;;;19.55;21.82;100819.19;5118820;27;43644;-81
2023/02/08 14:30:38;;;;;;;9.10;7.57;;;;;;;19.78;20.89;100827.53;5136023;27;42417;-83
2023/02/08 14:33:16;;;;;;;10.43;8.30;;;;;;;19.82;21.52;100823.66;5145054;27;42453;-81
2023/02/08 14:35:54;;;;;;;10.13;7.07;;;;;;;19.82;20.73;100824.50;5127882;27;42986;-81
2023/02/08 14:38:54;;;;;;;11.07;7.00;;;;;;;19.71;20.99;100819.88;5133634;27;42772;-82
2023/02/08 14:41:58;;;;;;;9.87;7.00;;;;;;;19.53;19.60;100837.28;5119019;27;42019;-81
2023/02/08 14:44:58;;;;;;;7.33;6.03;;;;;;;19.31;20.80;100828.91;5098213;27;39080;-80
2023/02/08 14:47:52;;;;;;;8.10;5.80;;;;;;;19.36;20.88;100832.16;5146080;27;40325;-81
2023/02/08 14:50:23;;;;;;;8.53;6.80;;;;;;;19.12;20.00;100834.66;5146797;27;42881;-82
2023/02/08 14:52:58;;;;;;;9.17;6.93;;;;;;;18.39;20.75;100822.44;5149247;27;43356;-83
2023/02/08 14:55:29;;;;;;;8.27;5.83;;;;;;;17.02;21.56;100798.63;5152118;27;40711;-81
2023/02/08 14:58:01;;;;;;;7.87;6.00;;;;;;;15.90;22.88;100804.00;5120609;27;42219;-80
2023/02/08 15:00:32;;;;;;;9.87;6.83;;;;;;;14.96;24.74;100790.19;5124391;27;42938;-80
2023/02/08 15:03:02;;;;;;;10.10;7.33;;;;;;;14.05;25.73;100774.06;5134581;27;40978;-81
2023/02/08 15:05:35;;;;;;;10.63;7.73;;;;;;;13.22;27.11;100766.25;5134220;27;41802;-81
2023/02/08 15:08:03;;;;;;;11.43;8.33;;;;;;;12.51;28.11;100739.94;5143742;27;41773;-80
2023/02/08 15:10:33;;;;;;;14.73;8.33;;;;;;;11.99;29.04;100746.47;5151175;27;41790;-81
2023/02/08 15:13:07;;;;;;;11.60;8.13;;;;;;;11.59;29.80;100771.81;5147196;27;41686;-80
2023/02/08 15:15:39;;;;;;;11.27;7.73;;;;;;;11.18;30.17;100759.13;5129003;27;41047;-81
2023/02/08 15:18:15;;;;;;;11.33;8.00;;;;;;;10.74;31.40;100746.47;5137479;27;40236;-80
2023/02/08 15:20:44;;;;;;;10.93;8.13;;;;;;;10.32;31.79;100743.41;5146389;27;42912;-80
2023/02/08 15:23:20;;;;;;;14.37;9.00;;;;;;;9.93;32.88;100741.94;5152209;27;42477;-80
2023/02/08 15:25:55;;;;;;;12.90;8.07;;;;;;;9.47;33.45;100719.47;5137533;27;40395;-80
2023/02/08 15:28:28;;;;;;;14.63;8.23;;;;;;;9.24;34.09;100733.31;5154794;27;41230;-80
2023/02/08 15:30:58;;;;;;;13.20;9.00;;;;;;;9.02;34.06;100729.53;5129711;27;42997;-80
2023/02/08 15:33:26;;;;;;;16.10;9.50;;;;;;;8.68;35.72;100705.72;5131820;27;42165;-80
2023/02/08 15:36:00;;;;;;;12.73;8.53;;;;;;;8.57;35.14;100723.59;5137092;27;39323;-80
2023/02/08 15:38:29;;;;;;;11.00;8.27;;;;;;;8.32;34.75;100714.53;5148627;27;40844;-81
2023/02/08 15:41:03;;;;;;;15.00;8.23;;;;;;;8.22;35.94;100716.50;5154169;27;43268;-80
2023/02/08 15:43:33;;;;;;;10.97;7.33;;;;;;;7.97;36.30;100705.63;5132650;27;44218;-81
2023/02/08 15:46:04;;;;;;;12.70;8.33;;;;;;;7.79;36.04;100712.16;5131952;27;39111;-80
2023/02/08 15:48:33;;;;;;;12.10;8.00;;;;;;;7.45;37.07;100684.78;5133394;27;40803;-81
2023/02/08 15:51:02;;;;;;;13.30;7.67;;;;;;;7.36;37.22;100706.94;5149901;27;42876;-81
2023/02/08 15:53:31;;;;;;;10.93;7.50;;;;;;;7.13;37.31;100709.16;5136479;27;42868;-80
2023/02/08 15:56:02;;;;;;;9.03;7.13;;;;;;;6.99;37.37;100711.16;5150281;27;39379;-81
2023/02/08 15:58:36;;;;;;;10.93;7.07;;;;;;;6.82;37.35;100714.97;5141806;27;41827;-79
2023/02/08 16:01:05;;;;;;;10.20;6.33;;;;;;;6.54;37.55;100692.66;5136292;27;42911;-80
2023/02/08 16:03:35;;;;;;;11.70;7.00;;;;;;;6.44;37.52;100701.56;5137228;27;41122;-81
2023/02/08 16:06:05;;;;;;;10.57;6.97;;;;;;;6.31;37.42;100705.28;5154121;27;39144;-80
2023/02/08 16:08:35;;;;;;;9.70;6.30;;;;;;;6.00;38.14;100684.72;5149214;27;42139;-80
2023/02/08 16:11:06;;;;;;;16.23;7.47;;;;;;;5.93;38.53;100698.88;5127965;27;41973;-80
2023/02/08 16:13:39;;;;;;;9.40;6.97;;;;;;;5.75;39.46;100693.81;5132445;27;41475;-80
2023/02/08 16:16:20;;;;;;;9.93;6.00;;;;;;;5.58;39.03;100701.91;5135997;27;38900;-80
2023/02/08 16:18:50;;;;;;;10.63;6.13;;;;;;;5.43;39.39;100703.88;5129887;27;40975;-79
2023/02/08 16:21:28;;;;;;;11.90;6.10;;;;;;;5.28;39.77;100707.56;5134614;27;43196;-80
2023/02/08 16:23:58;;;;;;;9.37;5.67;;;;;;;5.13;39.08;100707.72;5133467;27;42214;-80